createdAt,value
2023-04-22T00:00:26.854Z,5.55
2023-04-22T00:05:30.425Z,6.13
2023-04-22T00:10:33.794Z,4.97
2023-04-22T00:15:39.153Z,4.82
2023-04-22T00:20:45.761Z,4.60
2023-04-22T00:25:49.435Z,5.05
2023-04-22T00:30:54.219Z,4.93
2023-04-22T00:35:58.085Z,4.53
2023-04-22T00:41:02.237Z,5.63
2023-04-22T00:46:07.394Z,5.03
2023-04-22T00:51:11.668Z,4.70
2023-04-22T00:56:16.262Z,5.55
2023-04-22T01:01:22.856Z,4.68
2023-04-22T01:06:29.723Z,4.82
2023-04-22T01:11:34.156Z,4.57
2023-04-22T01:16:41.130Z,5.67
2023-04-22T01:21:47.237Z,4.80
2023-04-22T01:26:52.236Z,4.93
2023-04-22T01:31:56.095Z,4.43
2023-04-22T01:36:59.763Z,5.50
2023-04-22T01:42:05.121Z,5.10
2023-04-22T01:47:08.478Z,5.00
2023-04-22T01:52:12.737Z,5.18
2023-04-22T01:57:18.185Z,4.53
2023-04-22T02:02:21.611Z,4.72
2023-04-22T02:07:25.938Z,5.10
2023-04-22T02:12:31.525Z,4.75
2023-04-22T02:17:35.922Z,5.25
2023-04-22T02:22:42.100Z,4.97
2023-04-22T02:27:46.702Z,5.40
2023-04-22T02:37:55.541Z,5.45
2023-04-22T02:43:03.958Z,4.85
2023-04-22T02:48:07.297Z,4.95
2023-04-22T02:53:10.968Z,4.90
2023-04-22T02:58:15.878Z,4.80
2023-04-22T03:03:19.613Z,4.65
2023-04-22T03:08:24.021Z,5.05
2023-04-22T03:13:28.998Z,4.97
2023-04-22T03:18:32.788Z,4.82
2023-04-22T03:23:37.375Z,5.53
2023-04-22T03:28:43.280Z,5.03
2023-04-22T03:33:46.789Z,5.28
2023-04-22T03:39:00.055Z,4.97
2023-04-22T03:44:06.288Z,4.93
2023-04-22T03:49:12.282Z,5.00
2023-04-22T03:54:15.896Z,4.80
2023-04-22T03:59:27.791Z,5.15
2023-04-22T04:04:32.724Z,5.22
2023-04-22T04:09:38.226Z,4.72
2023-04-22T04:14:44.625Z,4.60
2023-04-22T04:19:51.966Z,5.10
2023-04-22T04:24:56.072Z,5.75
2023-04-22T04:30:07.400Z,4.95
2023-04-22T04:35:18.408Z,5.07
2023-04-22T04:40:29.245Z,4.88
2023-04-22T04:45:48.913Z,5.45
2023-04-22T04:50:55.626Z,5.13
2023-04-22T04:56:02.415Z,5.30
2023-04-22T05:01:08.035Z,5.43
2023-04-22T05:06:12.679Z,5.60
2023-04-22T05:11:19.769Z,6.03
2023-04-22T05:16:27.440Z,5.68
2023-04-22T05:21:31.524Z,5.80
2023-04-22T05:26:37.443Z,5.93
2023-04-22T05:31:51.258Z,5.78
2023-04-22T05:36:55.066Z,5.45
2023-04-22T05:41:59.345Z,6.22
2023-04-22T05:47:04.334Z,7.03
2023-04-22T05:52:07.795Z,5.82
2023-04-22T05:57:23.983Z,6.63
2023-04-22T06:02:29.372Z,6.43
2023-04-22T06:07:33.807Z,5.90
2023-04-22T06:12:37.346Z,6.05
2023-04-22T06:17:44.221Z,6.32
2023-04-22T06:22:47.631Z,6.38
2023-04-22T06:27:50.977Z,5.97
2023-04-22T06:32:58.290Z,6.25
2023-04-22T06:38:03.141Z,6.05
2023-04-22T06:43:13.462Z,6.07
2023-04-22T06:48:40.413Z,5.95
2023-04-22T06:53:53.213Z,6.13
2023-04-22T06:58:57.045Z,5.85
2023-04-22T07:04:02.435Z,5.95
2023-04-22T07:09:06.504Z,5.75
2023-04-22T07:14:10.594Z,6.38
2023-04-22T07:19:15.362Z,5.57
2023-04-22T07:24:18.910Z,7.20
2023-04-22T07:29:23.686Z,6.65
2023-04-22T07:34:29.228Z,6.43
2023-04-22T07:39:32.703Z,6.03
2023-04-22T07:44:38.171Z,6.20
2023-04-22T07:49:45.485Z,5.85
2023-04-22T07:54:49.753Z,5.53
2023-04-22T07:59:53.277Z,6.47
2023-04-22T08:04:58.254Z,6.15
2023-04-22T08:10:02.320Z,5.78
2023-04-22T08:15:06.935Z,6.40
2023-04-22T08:20:16.187Z,5.72
2023-04-22T08:25:19.632Z,6.13
2023-04-22T08:30:22.978Z,5.80
2023-04-22T08:35:27.759Z,6.15
2023-04-22T08:45:34.642Z,4.95
2023-04-22T08:50:39.921Z,6.25
2023-04-22T08:55:44.850Z,5.68
2023-04-22T09:00:49.532Z,6.25
2023-04-22T09:05:55.458Z,5.97
2023-04-22T09:10:59.771Z,5.30
2023-04-22T09:16:03.113Z,4.82
2023-04-22T09:21:09.264Z,4.80
2023-04-22T09:26:15.023Z,4.88
2023-04-22T09:31:19.176Z,4.38
2023-04-22T09:41:31.940Z,4.53
2023-04-22T09:51:44.478Z,4.63
2023-04-22T09:56:49.834Z,4.32
2023-04-22T10:01:55.415Z,4.50
2023-04-22T10:07:03.733Z,4.78
2023-04-22T10:12:07.247Z,4.63
2023-04-22T10:17:12.762Z,5.33
2023-04-22T10:22:17.851Z,5.40
2023-04-22T10:27:22.776Z,4.60
2023-04-22T10:32:27.756Z,4.13
2023-04-22T10:37:33.714Z,4.10
2023-04-22T10:42:39.192Z,4.22
2023-04-22T10:47:42.732Z,4.30
2023-04-22T10:52:50.733Z,4.40
2023-04-22T10:57:54.157Z,4.53
2023-04-22T11:03:15.436Z,4.35
2023-04-22T11:08:21.046Z,3.90
2023-04-22T11:13:24.507Z,3.45
2023-04-22T11:18:27.870Z,4.75
2023-04-22T11:23:32.642Z,4.28
2023-04-22T11:28:45.887Z,4.38
2023-04-22T11:33:50.419Z,4.10
2023-04-22T11:38:56.476Z,4.22
2023-04-22T11:44:00.674Z,4.35
2023-04-22T11:49:14.188Z,4.07
2023-04-22T11:54:31.413Z,4.75
2023-04-22T11:59:35.220Z,4.95
2023-04-22T12:04:39.391Z,4.23
2023-04-22T12:09:45.462Z,4.32
2023-04-22T12:14:48.864Z,4.40
2023-04-22T12:19:55.723Z,4.60
2023-04-22T12:25:01.004Z,4.28
2023-04-22T12:30:06.821Z,3.88
2023-04-22T12:35:11.007Z,3.60
2023-04-22T12:40:15.668Z,3.85
2023-04-22T12:45:19.496Z,3.80
2023-04-22T12:52:24.114Z,4.45
2023-04-22T12:57:28.091Z,3.95
2023-04-22T13:07:36.865Z,3.33
2023-04-22T13:12:40.728Z,4.07
2023-04-22T13:17:46.679Z,4.50
2023-04-22T13:22:53.653Z,4.20
2023-04-22T13:27:57.677Z,4.38
2023-04-22T13:33:01.233Z,4.15
2023-04-22T13:43:11.786Z,4.10
2023-04-22T13:53:23.744Z,4.30
2023-04-22T13:58:27.763Z,3.78
2023-04-22T14:03:31.411Z,3.97
2023-04-22T14:08:37.713Z,3.40
2023-04-22T14:13:41.077Z,3.80
2023-04-22T14:18:45.753Z,5.10
2023-04-22T14:23:51.464Z,4.00
2023-04-22T14:28:55.496Z,4.05
2023-04-22T14:33:58.865Z,4.10
2023-04-22T14:39:04.655Z,3.63
2023-04-22T14:44:07.970Z,4.65
2023-04-22T14:49:11.699Z,4.10
2023-04-22T14:54:16.338Z,3.97
2023-04-22T14:59:19.704Z,4.07
2023-04-22T15:04:24.198Z,4.33
2023-04-22T15:09:29.016Z,4.30
2023-04-22T15:14:35.501Z,4.35
2023-04-22T15:19:39.375Z,3.80
2023-04-22T15:24:45.036Z,4.20
2023-04-22T15:29:48.373Z,3.75
2023-04-22T15:34:51.793Z,4.17
2023-04-22T15:39:56.564Z,4.17
2023-04-22T15:45:00.297Z,3.83
2023-04-22T15:50:09.450Z,3.58
2023-04-22T15:55:14.642Z,4.10
2023-04-22T16:00:18.673Z,4.57
2023-04-22T16:05:24.583Z,4.85
2023-04-22T16:10:29.605Z,4.07
2023-04-22T16:15:33.105Z,5.05
2023-04-22T16:20:36.424Z,6.47
2023-04-22T16:25:41.234Z,4.35
2023-04-22T16:30:44.701Z,10.55
2023-04-22T16:35:48.077Z,4.50
2023-04-22T16:40:54.350Z,4.72
2023-04-22T16:45:58.135Z,4.28
2023-04-22T16:51:01.633Z,3.88
2023-04-22T16:56:07.056Z,4.03
2023-04-22T17:01:11.030Z,4.05
2023-04-22T17:06:16.079Z,3.90
2023-04-22T17:11:20.767Z,4.88
2023-04-22T17:16:24.336Z,4.07
2023-04-22T17:21:28.797Z,3.97
2023-04-22T17:26:34.244Z,4.43
2023-04-22T17:31:37.829Z,4.35
2023-04-22T17:36:41.495Z,4.07
2023-04-22T17:41:47.492Z,4.25
